Time;durP1;ratioP1;P1;durP2;ratioP2;P2;SDS_P1;SDS_P2;PMS_P1;PMS_P2;Temp;Humidity;BMP_temperature;BMP_pressure;BME280_temperature;BME280_humidity;BME280_pressure;Samples;Min_cycle;Max_cycle;Signal;HPM_P1;HPM_P2
2023/03/27 04:22:08;;;;;;;11.43;7.35;;;;;;;7.05;100.00;98415.25;5558343;32;280498;-88
2023/03/27 04:25:15;;;;;;;13.50;7.37;;;;;;;6.99;100.00;98421.78;5545585;32;33494;-86
2023/03/27 04:28:20;;;;;;;8.52;6.35;;;;;;;7.00;100.00;98418.19;5542922;32;34479;-86
2023/03/27 04:31:25;;;;;;;9.05;6.65;;;;;;;6.99;100.00;98414.69;5551519;32;34119;-86
2023/03/27 04:34:30;;;;;;;10.93;6.87;;;;;;;7.01;100.00;98415.44;5533412;32;33622;-86
2023/03/27 04:37:34;;;;;;;12.57;7.40;;;;;;;7.03;100.00;98411.88;5532963;32;33978;-86
2023/03/27 04:40:44;;;;;;;11.73;6.82;;;;;;;7.06;100.00;98416.94;5547931;32;33965;-87
2023/03/27 04:43:47;;;;;;;10.18;6.85;;;;;;;7.08;100.00;98413.25;5539602;32;34028;-86
2023/03/27 04:46:50;;;;;;;10.48;7.12;;;;;;;7.09;100.00;98414.09;5526528;32;33975;-86
2023/03/27 04:49:54;;;;;;;11.52;7.35;;;;;;;7.05;100.00;98413.47;5531108;32;33793;-86
2023/03/27 04:52:59;;;;;;;10.18;7.37;;;;;;;6.99;100.00;98405.97;5525323;32;33720;-86
2023/03/27 04:56:04;;;;;;;9.07;6.85;;;;;;;7.00;100.00;98403.19;5525554;32;34280;-86
2023/03/27 04:59:07;;;;;;;9.93;6.80;;;;;;;6.99;100.00;98404.16;5525825;32;33478;-86
2023/03/27 05:02:11;;;;;;;10.48;7.53;;;;;;;7.00;100.00;98408.47;5530336;32;34828;-86
2023/03/27 05:05:16;;;;;;;10.23;6.97;;;;;;;6.96;100.00;98401.75;5528977;32;34071;-86
2023/03/27 05:08:19;;;;;;;9.73;7.00;;;;;;;6.94;100.00;98398.34;5526645;32;33969;-86
2023/03/27 05:11:22;;;;;;;11.68;7.72;;;;;;;6.98;100.00;98398.97;5527638;32;33356;-86
2023/03/27 05:14:25;;;;;;;8.93;6.95;;;;;;;7.03;100.00;98385.50;5529881;32;34045;-86
2023/03/27 05:17:28;;;;;;;10.60;7.65;;;;;;;7.00;100.00;98382.12;5542559;32;34432;-86
2023/03/27 05:20:31;;;;;;;11.50;7.75;;;;;;;6.99;100.00;98383.06;5543923;32;34604;-86
2023/03/27 05:23:38;;;;;;;9.93;7.70;;;;;;;7.02;100.00;98382.03;5544561;32;34431;-86
2023/03/27 05:26:42;;;;;;;11.15;7.75;;;;;;;7.03;100.00;98377.59;5541936;32;33291;-86
2023/03/27 05:29:46;;;;;;;9.10;6.53;;;;;;;7.04;100.00;98387.19;5546548;32;34288;-88
2023/03/27 05:32:52;;;;;;;8.52;6.62;;;;;;;7.04;100.00;98377.47;5533482;32;34400;-87
2023/03/27 05:35:56;;;;;;;10.38;6.90;;;;;;;7.03;100.00;98377.59;5530655;32;33728;-87
2023/03/27 05:39:01;;;;;;;9.82;7.40;;;;;;;6.99;100.00;98375.16;5532922;32;34228;-87
2023/03/27 05:42:04;;;;;;;11.77;7.93;;;;;;;6.93;100.00;98367.66;5545420;32;34064;-88
2023/03/27 05:45:08;;;;;;;10.60;6.82;;;;;;;6.98;100.00;98368.19;5518575;32;34654;-87
2023/03/27 05:48:13;;;;;;;10.98;7.00;;;;;;;6.97;100.00;98360.38;5516552;32;34643;-88
2023/03/27 05:51:16;;;;;;;8.38;6.55;;;;;;;7.10;100.00;98355.97;5511268;32;33634;-87
2023/03/27 05:54:19;;;;;;;9.35;6.45;;;;;;;7.12;100.00;98359.38;5511459;32;34713;-87
2023/03/27 05:57:22;;;;;;;8.20;6.18;;;;;;;7.08;100.00;98357.88;5513285;32;33689;-87
2023/03/27 06:00:32;;;;;;;10.60;6.62;;;;;;;6.97;100.00;98352.47;5520116;32;33818;-88
2023/03/27 06:03:37;;;;;;;8.60;6.82;;;;;;;6.94;100.00;98350.91;5514583;32;34271;-91
2023/03/27 06:06:44;;;;;;;10.43;6.57;;;;;;;6.95;100.00;98349.13;5521846;32;33636;-92
2023/03/27 06:09:48;;;;;;;9.10;6.28;;;;;;;6.87;100.00;98344.34;5520177;32;33471;-86
2023/03/27 06:13:03;;;;;;;8.63;6.68;;;;;;;6.92;100.00;98346.66;5532148;32;31996;-87
2023/03/27 06:16:07;;;;;;;7.12;5.55;;;;;;;6.99;100.00;98343.53;5519295;32;33404;-86
2023/03/27 06:19:11;;;;;;;5.22;4.70;;;;;;;6.98;100.00;98333.94;5514486;32;34396;-85
2023/03/27 06:22:17;;;;;;;6.28;4.47;;;;;;;6.92;100.00;98342.25;5516787;32;33910;-84
2023/03/27 06:25:25;;;;;;;5.05;3.80;;;;;;;6.96;100.00;98333.19;5517036;32;34135;-85
2023/03/27 06:28:28;;;;;;;3.40;3.10;;;;;;;6.90;100.00;98341.53;5517299;32;35005;-85
2023/03/27 06:31:32;;;;;;;4.25;3.60;;;;;;;6.91;100.00;98345.00;5519860;32;34181;-87
2023/03/27 06:34:38;;;;;;;3.50;2.80;;;;;;;7.00;100.00;98339.94;5530623;32;33841;-86
2023/03/27 06:37:44;;;;;;;6.12;2.62;;;;;;;6.99;100.00;98330.34;5532410;32;32849;-85
2023/03/27 06:40:48;;;;;;;4.10;2.70;;;;;;;6.89;100.00;98339.81;5537260;32;33830;-85
2023/03/27 06:43:51;;;;;;;3.67;2.78;;;;;;;6.97;100.00;98326.13;5545017;32;34068;-85
2023/03/27 06:46:57;;;;;;;4.05;2.20;;;;;;;6.98;100.00;98331.28;5537041;32;33331;-87
2023/03/27 06:50:00;;;;;;;2.20;2.10;;;;;;;6.98;100.00;98333.94;5525168;32;35351;-85
2023/03/27 06:53:05;;;;;;;1.95;1.83;;;;;;;6.97;100.00;98334.88;5513567;32;34101;-85
2023/03/27 06:56:25;;;;;;;4.12;2.30;;;;;;;6.91;100.00;98332.66;5531063;32;33713;-85
2023/03/27 06:59:42;;;;;;;3.55;1.98;;;;;;;6.97;100.00;98331.41;5536796;32;33528;-86
2023/03/27 07:02:45;;;;;;;2.42;2.22;;;;;;;7.10;100.00;98328.78;5524532;32;34503;-85
2023/03/27 07:05:50;;;;;;;4.78;2.37;;;;;;;7.12;100.00;98316.31;5537117;32;34152;-85
2023/03/27 07:08:53;;;;;;;3.15;2.12;;;;;;;7.16;100.00;98325.72;5527189;32;34946;-85
2023/03/27 07:11:56;;;;;;;2.72;2.20;;;;;;;7.15;100.00;98330.13;5522598;32;33808;-86
2023/03/27 07:14:59;;;;;;;2.55;2.10;;;;;;;7.08;100.00;98333.28;5525071;32;35247;-83
2023/03/27 07:18:05;;;;;;;3.00;2.40;;;;;;;6.98;100.00;98330.44;5516724;32;35100;-84
2023/03/27 07:21:09;;;;;;;4.90;2.47;;;;;;;7.03;100.00;98335.44;5516278;32;34567;-85
2023/03/27 07:24:12;;;;;;;2.75;2.50;;;;;;;7.03;100.00;98343.34;5515825;32;34011;-84
2023/03/27 07:27:15;;;;;;;3.20;2.08;;;;;;;7.17;100.00;98345.00;5523518;32;34313;-89
2023/03/27 07:30:18;;;;;;;2.58;2.03;;;;;;;7.36;100.00;98353.38;5534211;32;34497;-89
2023/03/27 07:33:21;;;;;;;3.40;2.30;;;;;;;7.37;100.00;98348.91;5534769;32;35205;-88
2023/03/27 07:36:25;;;;;;;2.25;2.05;;;;;;;7.43;100.00;98342.41;5539059;32;34403;-90
2023/03/27 07:39:29;;;;;;;2.55;2.15;;;;;;;7.36;100.00;98342.81;5522806;32;35230;-84
2023/03/27 07:42:33;;;;;;;2.40;2.20;;;;;;;7.23;100.00;98342.81;5531709;32;33617;-83
2023/03/27 07:45:36;;;;;;;2.50;2.30;;;;;;;7.36;100.00;98345.47;5530701;32;34008;-83
2023/03/27 07:48:40;;;;;;;3.35;2.40;;;;;;;7.32;100.00;98346.59;5528396;32;35167;-84
2023/03/27 07:51:45;;;;;;;3.30;2.50;;;;;;;7.41;100.00;98360.97;5515799;32;33942;-85
2023/03/27 07:54:51;;;;;;;4.00;2.50;;;;;;;7.47;100.00;98355.25;5523710;32;34005;-83
2023/03/27 07:57:54;;;;;;;4.95;2.35;;;;;;;7.47;100.00;98357.91;5537642;32;34673;-83
2023/03/27 08:01:06;;;;;;;4.55;2.33;;;;;;;7.44;100.00;98358.09;5517840;32;33928;-84
2023/03/27 08:04:10;;;;;;;4.20;2.35;;;;;;;7.34;100.00;98364.97;5522343;32;33580;-83
2023/03/27 08:07:13;;;;;;;3.22;2.22;;;;;;;7.33;100.00;98355.37;5535618;32;34296;-84
2023/03/27 08:10:16;;;;;;;9.60;2.47;;;;;;;7.14;100.00;98359.25;5539996;32;34050;-83
2023/03/27 08:13:20;;;;;;;2.70;2.50;;;;;;;7.20;100.00;98355.34;5524960;32;34909;-83
2023/03/27 08:16:26;;;;;;;2.83;2.42;;;;;;;7.34;100.00;98349.16;5530146;32;34061;-82
2023/03/27 08:19:32;;;;;;;2.58;2.37;;;;;;;7.26;100.00;98347.03;5527233;32;33915;-82
2023/03/27 08:22:37;;;;;;;4.97;3.22;;;;;;;7.35;100.00;98354.28;5517508;32;34258;-82
2023/03/27 08:25:53;;;;;;;5.45;2.97;;;;;;;7.40;100.00;98357.47;5534058;32;34163;-82
2023/03/27 08:28:58;;;;;;;3.03;2.72;;;;;;;7.14;100.00;98356.59;5526068;32;34655;-82
2023/03/27 08:32:01;;;;;;;3.95;2.70;;;;;;;7.20;100.00;98371.19;5525981;32;33857;-82
2023/03/27 08:35:07;;;;;;;5.70;2.97;;;;;;;7.18;100.00;98367.81;5528478;32;33686;-82
2023/03/27 08:38:10;;;;;;;3.20;2.90;;;;;;;7.12;100.00;98371.69;5534003;32;33309;-82
2023/03/27 08:41:37;;;;;;;8.83;3.37;;;;;;;7.01;100.00;98369.78;5528952;32;34318;-81
2023/03/27 08:44:42;;;;;;;3.35;2.80;;;;;;;6.93;100.00;98365.03;5532154;32;35757;-81
2023/03/27 08:47:52;;;;;;;3.72;2.90;;;;;;;6.88;100.00;98365.34;5530039;32;33726;-82
2023/03/27 08:51:03;;;;;;;;;;;;;;;6.96;100.00;98370.09;5537992;32;34446;-88
2023/03/27 08:54:33;;;;;;;4.68;3.25;;;;;;;6.92;100.00;98381.78;5525873;32;34431;-88
2023/03/27 08:57:37;;;;;;;3.83;3.30;;;;;;;6.84;100.00;98384.94;5524232;32;34186;-82
2023/03/27 09:00:43;;;;;;;4.90;3.47;;;;;;;6.89;100.00;98381.97;5536968;32;34180;-84
2023/03/27 09:04:00;;;;;;;3.65;3.20;;;;;;;6.97;100.00;98386.75;5532509;32;33566;-86
2023/03/27 09:07:36;;;;;;;3.85;2.92;;;;;;;7.11;100.00;98385.84;5532285;32;34513;-84
2023/03/27 09:10:49;;;;;;;4.72;3.12;;;;;;;7.10;100.00;98392.06;5538138;32;34274;-85
2023/03/27 09:13:54;;;;;;;5.25;3.00;;;;;;;7.09;100.00;98390.38;5531436;32;34567;-85
2023/03/27 09:17:03;;;;;;;3.50;3.20;;;;;;;7.11;100.00;98399.87;5535960;32;33714;-85
2023/03/27 09:20:24;;;;;;;5.57;3.53;;;;;;;7.04;100.00;98406.47;5540282;32;34703;-86
2023/03/27 09:23:35;;;;;;;5.35;3.55;;;;;;;7.03;100.00;98409.25;5533293;32;34398;-85
2023/03/27 09:26:41;;;;;;;3.70;3.40;;;;;;;7.04;100.00;98410.94;5533780;32;33848;-85
2023/03/27 09:30:00;;;;;;;5.12;3.55;;;;;;;7.11;100.00;98412.19;5538894;32;33920;-83
2023/03/27 09:33:11;;;;;;;4.75;3.50;;;;;;;7.04;100.00;98416.19;5537400;32;35348;-84
2023/03/27 09:36:16;;;;;;;5.87;3.70;;;;;;;6.99;100.00;98422.63;5539257;32;33941;-84
2023/03/27 09:39:27;;;;;;;4.75;3.60;;;;;;;7.01;100.00;98428.63;5529598;32;32748;-83
2023/03/27 09:42:40;;;;;;;4.68;3.80;;;;;;;7.06;100.00;98427.47;5537713;32;34046;-83
2023/03/27 09:45:46;;;;;;;4.30;3.72;;;;;;;6.98;100.00;98431.47;5544663;32;34231;-85
2023/03/27 09:48:56;;;;;;;5.28;3.83;;;;;;;6.90;100.00;98438.19;5539532;32;36780;-85
2023/03/27 09:52:01;;;;;;;4.87;4.10;;;;;;;6.76;100.00;98439.94;5541074;32;34259;-84
2023/03/27 09:55:30;;;;;;;5.53;4.40;;;;;;;6.77;100.00;98446.03;5542891;32;35344;-85
2023/03/27 09:58:42;;;;;;;5.50;4.45;;;;;;;6.71;100.00;98453.44;5531088;32;34160;-85
2023/03/27 10:01:47;;;;;;;4.15;3.75;;;;;;;6.67;100.00;98451.94;5533188;32;34005;-84
2023/03/27 10:05:11;;;;;;;6.37;3.80;;;;;;;6.67;100.00;98449.28;5534600;32;33985;-84
2023/03/27 10:08:23;;;;;;;4.37;3.30;;;;;;;6.57;100.00;98456.94;5529292;32;34428;-86
2023/03/27 10:11:32;;;;;;;3.92;3.00;;;;;;;6.57;100.00;98456.94;5540897;32;34566;-85
2023/03/27 10:14:35;;;;;;;3.05;2.75;;;;;;;6.50;100.00;98462.69;5544050;32;34178;-86
2023/03/27 10:17:39;;;;;;;4.28;2.78;;;;;;;6.51;100.00;98464.38;5539877;32;34143;-89
2023/03/27 10:20:53;;;;;;;2.70;2.50;;;;;;;6.47;100.00;98461.09;5550113;32;34130;-87
2023/03/27 10:24:16;;;;;;;4.12;2.95;;;;;;;6.45;100.00;98458.56;5533055;32;34368;-84
2023/03/27 10:27:29;;;;;;;3.92;3.10;;;;;;;6.41;100.00;98458.84;5543500;32;33794;-83
2023/03/27 10:30:39;;;;;;;3.28;2.80;;;;;;;6.38;100.00;98457.25;5522078;32;34472;-84
2023/03/27 10:33:43;;;;;;;6.37;3.15;;;;;;;6.44;100.00;98458.69;5542293;32;34197;-83
2023/03/27 10:36:48;;;;;;;3.28;2.53;;;;;;;6.43;100.00;98471.00;5521585;32;34478;-82
2023/03/27 10:39:52;;;;;;;4.50;3.03;;;;;;;6.55;100.00;98471.97;5530609;32;34136;-82
2023/03/27 10:43:02;;;;;;;10.50;3.00;;;;;;;6.64;100.00;98475.00;5534296;32;34444;-82
2023/03/27 10:46:11;;;;;;;3.78;2.83;;;;;;;7.17;100.00;98477.72;5534424;32;33849;-83
2023/03/27 10:49:29;;;;;;;4.35;3.15;;;;;;;7.07;100.00;98479.25;5528906;32;34059;-82
2023/03/27 10:52:45;;;;;;;4.12;2.37;;;;;;;6.74;100.00;98482.19;5536662;32;34144;-82
2023/03/27 10:55:50;;;;;;;2.67;2.12;;;;;;;6.67;100.00;98485.31;5527884;32;34176;-84
2023/03/27 10:59:07;;;;;;;3.33;2.30;;;;;;;6.66;100.00;98481.84;5537011;32;33887;-86
2023/03/27 11:02:21;;;;;;;2.45;2.05;;;;;;;6.49;100.00;98490.81;5536093;32;34204;-84
2023/03/27 11:05:46;;;;;;;5.30;2.22;;;;;;;6.44;100.00;98493.75;5534724;32;35258;-83
2023/03/27 11:09:04;;;;;;;3.92;2.30;;;;;;;6.29;100.00;98495.53;5528521;32;34816;-85
2023/03/27 11:12:12;;;;;;;2.62;2.03;;;;;;;6.13;100.00;98494.81;5530757;32;34059;-85
2023/03/27 11:15:24;;;;;;;2.00;1.80;;;;;;;6.05;100.00;98497.91;5523783;32;34222;-84
2023/03/27 11:19:02;;;;;;;2.55;1.83;;;;;;;6.02;100.00;98495.44;5519240;32;34233;-84
2023/03/27 11:22:39;;;;;;;3.92;2.00;;;;;;;6.11;100.00;98496.69;5529065;32;33779;-86
2023/03/27 11:25:51;;;;;;;1.58;1.48;;;;;;;6.12;100.00;98501.88;5536551;32;33986;-85
2023/03/27 11:29:24;;;;;;;4.90;1.70;;;;;;;6.18;100.00;98498.84;5528673;32;34624;-86
2023/03/27 11:32:46;;;;;;;2.00;1.45;;;;;;;6.12;100.00;98501.88;5526366;32;33914;-87
2023/03/27 11:36:03;;;;;;;2.35;1.70;;;;;;;6.18;100.00;98506.75;5539316;32;34467;-86
2023/03/27 11:39:35;;;;;;;1.58;1.48;;;;;;;6.14;100.00;98504.41;5534569;32;34550;-84
2023/03/27 11:42:41;;;;;;;;;;;;;;;6.25;100.00;98501.97;5536622;32;33799;-85
2023/03/27 11:46:15;;;;;;;1.70;1.60;;;;;;;6.18;100.00;98503.25;5547457;32;34216;-83
2023/03/27 11:49:28;;;;;;;2.92;2.22;;;;;;;6.24;100.00;98499.41;5542209;32;34350;-84
2023/03/27 11:53:04;;;;;;;4.25;2.65;;;;;;;6.31;100.00;98506.00;5550983;31;35934;-84
2023/03/27 11:56:14;;;;;;;6.12;2.87;;;;;;;6.33;100.00;98506.72;5520808;32;34598;-84
2023/03/27 11:59:50;;;;;;;5.75;3.40;;;;;;;6.42;100.00;98498.28;5537446;32;35322;-88
2023/03/27 12:03:30;;;;;;;5.70;3.50;;;;;;;6.46;100.00;98504.19;5549858;32;34212;-84
2023/03/27 12:06:45;;;;;;;7.75;4.68;;;;;;;6.57;100.00;98504.38;5553950;32;34514;-84
2023/03/27 12:10:07;;;;;;;13.25;9.05;;;;;;;6.80;100.00;98502.06;5536332;32;34199;-84
2023/03/27 12:13:38;;;;;;;16.90;11.30;;;;;;;6.90;100.00;98515.50;5547144;32;34703;-84
2023/03/27 12:16:50;;;;;;;20.52;13.48;;;;;;;7.18;100.00;98515.50;5550183;32;33958;-83
2023/03/27 12:19:57;;;;;;;23.73;15.40;;;;;;;7.23;100.00;98510.72;5534621;32;34399;-84
2023/03/27 12:23:20;;;;;;;23.45;15.70;;;;;;;7.48;100.00;98522.28;5538850;32;34158;-83
2023/03/27 12:26:57;;;;;;;21.77;14.85;;;;;;;7.48;100.00;98525.78;5543408;32;34789;-84
2023/03/27 12:30:04;;;;;;;23.02;16.08;;;;;;;7.51;100.00;98528.25;5521572;32;33496;-83
2023/03/27 12:33:45;;;;;;;22.23;15.05;;;;;;;7.53;100.00;98541.31;5533894;32;34673;-84
2023/03/27 12:36:51;;;;;;;19.67;14.05;;;;;;;7.60;100.00;98536.47;5530389;32;34441;-87
2023/03/27 12:40:00;;;;;;;17.12;11.90;;;;;;;7.61;100.00;98546.06;5526557;32;34777;-86
2023/03/27 12:43:21;;;;;;;16.20;10.93;;;;;;;7.63;100.00;98546.81;5530575;32;33919;-87
2023/03/27 12:46:27;;;;;;;12.98;8.85;;;;;;;7.65;100.00;98547.56;5528150;32;33971;-87
2023/03/27 12:49:40;;;;;;;11.95;8.05;;;;;;;7.64;100.00;98559.09;5531661;32;34933;-87
2023/03/27 12:52:54;;;;;;;9.60;6.20;;;;;;;7.61;100.00;98569.84;5531233;32;34246;-88
2023/03/27 12:56:16;;;;;;;7.18;5.60;;;;;;;7.43;100.00;98578.00;5531925;32;34015;-88
2023/03/27 12:59:28;;;;;;;8.20;5.55;;;;;;;7.37;100.00;98583.69;5528193;32;33455;-88
2023/03/27 13:03:08;;;;;;;5.75;4.25;;;;;;;7.38;100.00;98598.56;5532972;32;33790;-87
2023/03/27 13:06:17;;;;;;;4.82;3.62;;;;;;;6.96;100.00;98598.59;5537573;32;34178;-88
2023/03/27 13:09:45;;;;;;;3.67;3.00;;;;;;;6.97;100.00;98616.09;5532739;32;34389;-87
2023/03/27 13:13:32;;;;;;;5.60;3.22;;;;;;;6.72;100.00;98620.28;5530879;32;35092;-87
2023/03/27 13:16:54;;;;;;;4.53;2.87;;;;;;;6.53;100.00;98616.13;5531540;32;33978;-88
2023/03/27 13:20:20;;;;;;;3.50;2.55;;;;;;;6.34;100.00;98637.50;5524854;32;35280;-92
2023/03/27 13:23:51;;;;;;;2.33;2.12;;;;;;;6.29;100.00;98637.75;5525740;32;34041;-87
2023/03/27 13:27:05;;;;;;;3.05;2.33;;;;;;;6.14;100.00;98644.78;5517314;32;33691;-88
2023/03/27 13:30:43;;;;;;;2.37;2.17;;;;;;;6.01;100.00;98642.00;5527700;31;34960;-88
2023/03/27 13:34:13;;;;;;;2.85;2.30;;;;;;;6.11;100.00;98662.53;5525980;32;33959;-88
2023/03/27 13:37:16;;;;;;;2.53;2.30;;;;;;;5.93;100.00;98688.97;5537295;32;33778;-88
2023/03/27 13:40:25;;;;;;;3.20;2.28;;;;;;;5.82;100.00;98684.31;5551331;26;34047;-88
2023/03/27 13:43:34;;;;;;;6.15;2.15;;;;;;;5.70;100.00;98709.56;5580591;26;34651;-90
2023/03/27 13:46:43;;;;;;;2.12;1.90;;;;;;;5.51;100.00;98681.66;5549099;32;34603;-89
2023/03/27 13:50:08;;;;;;;4.32;2.25;;;;;;;5.48;100.00;98708.13;5549892;32;33722;-88
2023/03/27 13:53:29;;;;;;;2.60;2.40;;;;;;;5.36;100.00;98721.94;5573206;31;34096;-88
2023/03/27 13:56:54;;;;;;;2.70;2.17;;;;;;;5.34;100.00;98726.44;5573357;32;34838;-88
2023/03/27 14:00:25;;;;;;;3.12;2.67;;;;;;;5.30;100.00;98738.91;5551715;32;33886;-88
2023/03/27 14:03:56;;;;;;;8.82;6.10;;;;;;;5.18;100.00;98773.75;5562230;32;32912;-88
2023/03/27 14:07:23;;;;;;;3.67;3.22;;;;;;;5.10;100.00;98771.53;5523312;32;35090;-87
2023/03/27 14:10:43;;;;;;;3.95;3.50;;;;;;;5.11;100.00;98797.75;5546820;32;33953;-87
2023/03/27 14:14:10;;;;;;;4.18;3.42;;;;;;;5.01;100.00;98808.78;5549127;32;35168;-91
2023/03/27 14:17:19;;;;;;;4.12;3.30;;;;;;;4.74;100.00;98833.81;5546001;32;34788;-89
2023/03/27 14:20:29;;;;;;;7.40;4.03;;;;;;;4.80;100.00;98843.13;5549035;32;33764;-88
2023/03/27 14:23:51;;;;;;;6.50;4.37;;;;;;;4.72;100.00;98840.88;5554150;32;33887;-88
2023/03/27 14:26:56;;;;;;;4.00;3.55;;;;;;;4.69;100.00;98846.31;5553766;32;34808;-88
2023/03/27 14:30:14;;;;;;;5.53;4.28;;;;;;;4.54;100.00;98859.25;5562185;32;34030;-88
2023/03/27 14:33:19;;;;;;;3.95;3.45;;;;;;;4.32;100.00;98877.84;5556400;32;34473;-88
2023/03/27 14:36:25;;;;;;;6.22;3.97;;;;;;;4.36;100.00;98879.41;5565257;32;33842;-88
2023/03/27 14:39:33;;;;;;;5.20;3.67;;;;;;;4.28;100.00;98895.50;5560449;32;33783;-88
2023/03/27 14:42:37;;;;;;;4.07;3.60;;;;;;;4.14;100.00;98890.94;5561004;32;35122;-88
2023/03/27 14:45:40;;;;;;;6.40;3.53;;;;;;;4.14;100.00;98903.19;5567267;32;34371;-87
2023/03/27 14:48:46;;;;;;;5.70;3.47;;;;;;;4.16;100.00;98896.09;5557188;32;34202;-88
2023/03/27 14:51:52;;;;;;;3.58;3.22;;;;;;;4.17;100.00;98930.16;5556243;32;32976;-87
2023/03/27 14:54:58;;;;;;;4.87;3.25;;;;;;;4.27;100.00;98932.34;5563601;32;34552;-88
2023/03/27 14:58:09;;;;;;;4.30;3.35;;;;;;;4.24;100.00;98932.50;5563079;32;34722;-87
2023/03/27 15:01:15;;;;;;;5.28;3.47;;;;;;;4.17;100.00;98938.03;5564283;32;34766;-88
2023/03/27 15:04:21;;;;;;;4.22;3.20;;;;;;;4.11;100.00;98945.31;5550940;32;34298;-87
2023/03/27 15:07:30;;;;;;;4.05;3.20;;;;;;;4.18;100.00;98962.50;5562186;32;35182;-87
2023/03/27 15:10:35;;;;;;;5.85;3.35;;;;;;;4.02;100.00;98985.97;5548030;32;35253;-92
2023/03/27 15:13:41;;;;;;;4.05;3.40;;;;;;;3.82;100.00;98986.87;5553503;32;35267;-92
2023/03/27 15:16:54;;;;;;;3.75;3.30;;;;;;;3.81;100.00;98983.38;5560505;32;34138;-91
2023/03/27 15:20:08;;;;;;;4.22;3.50;;;;;;;3.76;100.00;99009.81;5562973;32;33893;-89
2023/03/27 15:23:30;;;;;;;5.70;3.22;;;;;;;3.63;100.00;99013.91;5553374;32;33787;-88
2023/03/27 15:26:34;;;;;;;3.78;3.20;;;;;;;3.48;100.00;99042.44;5551104;32;33742;-87
2023/03/27 15:29:45;;;;;;;3.78;3.30;;;;;;;3.61;100.00;99045.41;5550899;32;34579;-88
2023/03/27 15:32:51;;;;;;;;;;;;;;;3.46;100.00;99049.53;5551414;32;34340;-87
2023/03/27 15:35:55;;;;;;;3.22;2.92;;;;;;;3.36;100.00;99049.06;5550743;32;33976;-87
